createdAt,value
2022-10-02T00:02:25.202Z,0.73
2022-10-02T00:04:57.837Z,0.32
2022-10-02T00:07:46.578Z,0.45
2022-10-02T00:10:19.749Z,0.40
2022-10-02T00:12:50.085Z,0.90
2022-10-02T00:15:22.285Z,0.50
2022-10-02T00:17:52.931Z,0.38
2022-10-02T00:20:25.126Z,0.35
2022-10-02T00:23:04.459Z,0.50
2022-10-02T00:26:12.673Z,0.63
2022-10-02T00:28:48.122Z,0.40
2022-10-02T00:31:34.176Z,0.45
2022-10-02T00:34:15.297Z,0.47
2022-10-02T00:37:22.407Z,0.43
2022-10-02T00:40:35.321Z,0.50
2022-10-02T00:43:05.814Z,0.47
2022-10-02T00:45:51.226Z,0.45
2022-10-02T00:48:36.209Z,0.60
2022-10-02T00:51:27.926Z,0.50
2022-10-02T00:54:30.411Z,0.52
2022-10-02T00:57:13.592Z,0.50
2022-10-02T01:00:05.900Z,0.50
2022-10-02T01:03:08.081Z,0.50
2022-10-02T01:05:35.633Z,0.70
2022-10-02T01:08:02.482Z,0.60
2022-10-02T01:10:29.802Z,0.40
2022-10-02T01:12:57.783Z,0.73
2022-10-02T01:15:33.411Z,0.43
2022-10-02T01:18:02.220Z,0.60
2022-10-02T01:20:50.724Z,0.50
2022-10-02T01:23:24.726Z,0.82
2022-10-02T01:25:51.439Z,0.52
2022-10-02T01:28:18.554Z,0.40
2022-10-02T01:30:50.226Z,0.70
2022-10-02T01:33:18.778Z,0.60
2022-10-02T01:35:46.137Z,0.93
2022-10-02T01:38:18.233Z,0.50
2022-10-02T01:40:45.197Z,0.55
2022-10-02T01:43:24.718Z,0.43
2022-10-02T01:46:22.550Z,1.08
2022-10-02T01:49:25.933Z,0.40
2022-10-02T01:52:10.983Z,0.50
2022-10-02T01:54:46.874Z,0.50
2022-10-02T01:57:19.662Z,0.40
2022-10-02T01:59:51.514Z,0.47
2022-10-02T02:02:38.847Z,0.43
2022-10-02T02:05:05.460Z,1.00
2022-10-02T02:07:35.565Z,0.55
2022-10-02T02:10:14.083Z,0.80
2022-10-02T02:12:45.737Z,0.43
2022-10-02T02:15:23.809Z,0.60
2022-10-02T02:18:08.232Z,0.80
2022-10-02T02:20:45.027Z,0.77
2022-10-02T02:23:17.492Z,0.63
2022-10-02T02:25:48.491Z,0.40
2022-10-02T02:28:18.801Z,0.35
2022-10-02T02:30:49.949Z,0.70
2022-10-02T02:33:26.531Z,1.00
2022-10-02T02:36:01.614Z,0.88
2022-10-02T02:38:37.843Z,0.57
2022-10-02T02:41:11.861Z,0.73
2022-10-02T02:43:48.902Z,0.80
2022-10-02T02:46:23.739Z,0.70
2022-10-02T02:48:57.846Z,0.40
2022-10-02T02:51:32.474Z,0.70
2022-10-02T02:54:12.845Z,1.00
2022-10-02T02:56:42.703Z,0.80
2022-10-02T02:59:11.808Z,0.43
2022-10-02T03:01:38.455Z,0.50
2022-10-02T03:04:05.410Z,0.82
2022-10-02T03:06:37.735Z,0.50
2022-10-02T03:09:08.360Z,0.50
2022-10-02T03:11:58.438Z,0.60
2022-10-02T03:14:49.775Z,0.68
2022-10-02T03:17:31.528Z,0.60
2022-10-02T03:20:11.468Z,0.70
2022-10-02T03:22:53.259Z,0.67
2022-10-02T03:25:31.713Z,0.57
2022-10-02T03:28:07.309Z,0.60
2022-10-02T03:30:36.410Z,0.70
2022-10-02T03:33:05.440Z,0.65
2022-10-02T03:35:33.006Z,0.60
2022-10-02T03:38:04.983Z,0.68
2022-10-02T03:40:31.716Z,0.75
2022-10-02T03:42:58.530Z,0.55
2022-10-02T03:45:49.352Z,1.10
2022-10-02T03:48:13.494Z,1.17
2022-10-02T03:50:40.277Z,0.82
2022-10-02T03:53:14.452Z,0.50
2022-10-02T03:55:46.598Z,0.85
2022-10-02T03:58:17.924Z,0.50
2022-10-02T04:01:10.862Z,0.95
2022-10-02T04:03:43.777Z,0.90
2022-10-02T04:06:19.179Z,0.52
2022-10-02T04:08:50.938Z,0.50
2022-10-02T04:11:40.532Z,0.40
2022-10-02T04:14:13.123Z,0.55
2022-10-02T04:16:52.056Z,0.38
2022-10-02T04:19:30.105Z,0.50
2022-10-02T04:22:02.589Z,0.45
2022-10-02T04:24:48.917Z,1.15
2022-10-02T04:27:38.704Z,0.80
2022-10-02T04:30:16.540Z,0.70
2022-10-02T04:32:43.477Z,0.70
2022-10-02T04:35:25.446Z,0.95
2022-10-02T04:38:07.916Z,1.73
2022-10-02T04:41:11.156Z,1.77
2022-10-02T04:43:56.716Z,1.10
2022-10-02T04:46:47.272Z,0.73
2022-10-02T04:49:35.676Z,0.60
2022-10-02T04:52:26.876Z,0.50
2022-10-02T04:55:17.794Z,0.50
2022-10-02T05:00:42.739Z,0.50
2022-10-02T05:03:36.790Z,0.90
2022-10-02T05:06:32.818Z,0.80
2022-10-02T05:09:28.266Z,0.60
2022-10-02T05:12:24.004Z,0.75
2022-10-02T05:15:15.872Z,0.70
2022-10-02T05:17:49.816Z,0.82
2022-10-02T05:20:44.162Z,0.40
2022-10-02T05:23:29.136Z,0.70
2022-10-02T05:26:14.214Z,0.60
2022-10-02T05:29:07.178Z,0.55
2022-10-02T05:31:36.942Z,0.90
2022-10-02T05:34:40.538Z,1.20
2022-10-02T05:37:32.036Z,1.63
2022-10-02T05:40:25.225Z,1.35
2022-10-02T05:42:56.673Z,1.15
2022-10-02T05:45:26.829Z,0.98
2022-10-02T05:48:01.478Z,1.75
2022-10-02T05:50:34.326Z,1.60
2022-10-02T05:53:29.948Z,0.80
2022-10-02T05:56:06.409Z,1.17
2022-10-02T05:58:48.295Z,0.70
2022-10-02T06:01:28.338Z,0.85
2022-10-02T06:04:08.005Z,0.63
2022-10-02T06:06:48.698Z,1.10
2022-10-02T06:09:20.531Z,0.70
2022-10-02T06:12:09.216Z,0.70
2022-10-02T06:15:03.552Z,0.80
2022-10-02T06:17:54.870Z,0.68
2022-10-02T06:20:30.638Z,0.70
2022-10-02T06:23:05.855Z,0.75
2022-10-02T06:25:38.348Z,0.70
2022-10-02T06:28:33.073Z,0.73
2022-10-02T06:31:04.945Z,0.70
2022-10-02T06:33:33.408Z,1.02
2022-10-02T06:36:24.451Z,0.70
2022-10-02T06:39:15.345Z,0.80
2022-10-02T06:44:21.249Z,0.70
2022-10-02T06:46:54.241Z,1.10
2022-10-02T06:49:39.622Z,0.77
2022-10-02T06:52:15.284Z,0.73
2022-10-02T06:55:08.411Z,1.60
2022-10-02T06:58:18.266Z,1.33
2022-10-02T07:01:07.074Z,1.42
2022-10-02T07:03:45.820Z,1.10
2022-10-02T07:06:50.548Z,1.63
2022-10-02T07:09:32.450Z,1.05
2022-10-02T07:12:27.185Z,1.10
2022-10-02T07:15:44.887Z,0.88
2022-10-02T07:18:45.133Z,0.80
2022-10-02T07:21:50.343Z,1.33
2022-10-02T07:24:23.876Z,0.68
2022-10-02T07:27:12.030Z,0.70
2022-10-02T07:30:16.403Z,0.90
2022-10-02T07:33:00.851Z,0.90
2022-10-02T07:35:33.482Z,0.70
2022-10-02T07:38:20.983Z,0.60
2022-10-02T07:41:19.431Z,0.60
2022-10-02T07:43:53.617Z,0.63
2022-10-02T07:46:40.406Z,0.40
2022-10-02T07:49:07.050Z,0.80
2022-10-02T07:51:47.582Z,1.05
2022-10-02T07:54:58.785Z,0.82
2022-10-02T07:57:42.617Z,0.82
2022-10-02T08:00:14.147Z,0.82
2022-10-02T08:03:15.919Z,0.77
2022-10-02T08:05:52.939Z,0.80
2022-10-02T08:08:23.994Z,1.02
2022-10-02T08:11:17.532Z,0.68
2022-10-02T08:13:59.408Z,0.57
2022-10-02T08:16:32.529Z,1.02
2022-10-02T08:19:07.807Z,0.80
2022-10-02T08:21:41.864Z,0.70
2022-10-02T08:24:17.495Z,0.60
2022-10-02T08:26:52.070Z,0.82
2022-10-02T08:29:28.168Z,0.75
2022-10-02T08:31:56.582Z,0.80
2022-10-02T08:34:25.711Z,0.85
2022-10-02T08:37:29.396Z,0.57
2022-10-02T08:40:30.029Z,0.93
2022-10-02T08:43:27.851Z,0.77
2022-10-02T08:46:16.802Z,1.20
2022-10-02T08:49:08.558Z,0.75
2022-10-02T08:51:54.122Z,0.90
2022-10-02T08:54:45.261Z,0.60
2022-10-02T08:57:27.276Z,0.65
2022-10-02T09:00:30.263Z,0.80
2022-10-02T09:02:57.988Z,0.73
2022-10-02T09:05:25.919Z,0.63
2022-10-02T09:08:11.477Z,0.50
2022-10-02T09:11:09.201Z,0.60
2022-10-02T09:13:51.282Z,0.65
2022-10-02T09:16:46.003Z,0.52
2022-10-02T09:19:42.932Z,0.88
2022-10-02T09:22:34.514Z,0.85
2022-10-02T09:25:22.529Z,0.73
2022-10-02T09:28:09.317Z,0.50
2022-10-02T09:31:03.654Z,1.10
2022-10-02T09:33:57.628Z,0.55
2022-10-02T09:36:56.326Z,0.70
2022-10-02T09:39:51.656Z,0.40
2022-10-02T09:43:09.724Z,0.70
2022-10-02T09:46:06.758Z,0.40
2022-10-02T09:48:46.100Z,0.47
2022-10-02T09:51:26.349Z,0.68
2022-10-02T09:54:31.255Z,0.63
2022-10-02T09:57:11.662Z,0.63
2022-10-02T10:00:14.320Z,0.50
2022-10-02T10:02:44.011Z,0.40
2022-10-02T10:05:20.073Z,0.57
2022-10-02T10:08:24.333Z,0.65
2022-10-02T10:11:29.331Z,0.40
2022-10-02T10:14:20.323Z,0.30
2022-10-02T10:17:09.086Z,0.63
2022-10-02T10:20:18.282Z,0.57
2022-10-02T10:23:00.215Z,0.40
2022-10-02T10:25:32.979Z,0.52
2022-10-02T10:28:34.915Z,0.30
2022-10-02T10:31:02.253Z,0.50
2022-10-02T10:33:44.057Z,0.22
2022-10-02T10:36:57.709Z,0.47
2022-10-02T10:39:58.477Z,0.47
2022-10-02T10:43:08.030Z,0.35
2022-10-02T10:45:57.888Z,0.50
2022-10-02T10:48:30.644Z,0.43
2022-10-02T10:51:25.472Z,0.40
2022-10-02T10:54:21.521Z,0.50
2022-10-02T10:56:55.409Z,0.60
2022-10-02T10:59:42.379Z,0.40
2022-10-02T11:02:24.591Z,0.50
2022-10-02T11:05:24.637Z,0.50
2022-10-02T11:08:22.202Z,0.40
2022-10-02T11:10:51.789Z,0.52
2022-10-02T11:13:44.170Z,1.20
2022-10-02T11:16:35.782Z,1.08
2022-10-02T11:19:22.846Z,0.30
2022-10-02T11:22:28.241Z,0.50
2022-10-02T11:24:57.902Z,0.55
2022-10-02T11:28:18.870Z,0.50
2022-10-02T11:31:25.066Z,0.50
2022-10-02T11:34:04.483Z,0.60
2022-10-02T11:36:49.642Z,0.63
2022-10-02T11:39:45.563Z,0.60
2022-10-02T11:42:24.353Z,0.55
2022-10-02T11:45:04.660Z,0.68
2022-10-02T11:47:50.166Z,1.25
2022-10-02T11:50:38.711Z,0.57
2022-10-02T11:53:21.025Z,0.60
2022-10-02T11:56:00.091Z,0.60
2022-10-02T11:59:10.631Z,0.40
2022-10-02T12:01:56.804Z,0.40
2022-10-02T12:04:48.468Z,0.40
2022-10-02T12:07:18.043Z,0.22
2022-10-02T12:10:17.071Z,0.45
2022-10-02T12:12:51.686Z,0.20
2022-10-02T12:15:39.805Z,0.30
2022-10-02T12:18:06.659Z,0.22
2022-10-02T12:21:15.397Z,0.40
2022-10-02T12:24:39.053Z,0.35
2022-10-02T12:27:18.812Z,0.20
2022-10-02T12:30:02.425Z,0.30
2022-10-02T12:32:37.603Z,0.35
2022-10-02T12:35:31.546Z,0.32
2022-10-02T12:38:01.138Z,0.50
2022-10-02T12:41:03.328Z,0.20
2022-10-02T12:43:55.522Z,0.30
2022-10-02T12:46:35.072Z,0.50
2022-10-02T12:49:27.739Z,0.40
2022-10-02T12:52:16.407Z,0.43
2022-10-02T12:55:11.098Z,0.43
2022-10-02T12:57:52.948Z,0.20
2022-10-02T13:00:22.513Z,0.30
2022-10-02T13:03:20.432Z,0.30
2022-10-02T13:05:53.300Z,0.60
2022-10-02T13:08:39.699Z,0.40
2022-10-02T13:11:31.283Z,0.50
2022-10-02T13:14:14.517Z,0.50
2022-10-02T13:17:09.739Z,0.77
2022-10-02T13:19:58.598Z,0.77
2022-10-02T13:22:45.466Z,1.02
2022-10-02T13:25:34.468Z,0.60
2022-10-02T13:28:26.015Z,0.98
2022-10-02T13:31:02.618Z,0.40
2022-10-02T13:33:50.879Z,0.63
2022-10-02T13:36:47.109Z,0.82
2022-10-02T13:39:27.255Z,0.50
2022-10-02T13:42:09.436Z,0.65
2022-10-02T13:45:05.581Z,0.63
2022-10-02T13:48:13.230Z,0.52
2022-10-02T13:51:05.187Z,0.60
2022-10-02T13:53:52.404Z,0.60
2022-10-02T13:56:51.053Z,0.60
2022-10-02T13:59:33.331Z,0.80
2022-10-02T14:02:12.092Z,0.82
2022-10-02T14:04:50.955Z,0.60
2022-10-02T14:07:48.994Z,0.63
2022-10-02T14:10:21.758Z,0.70
2022-10-02T14:13:26.226Z,0.68
2022-10-02T14:16:00.390Z,0.60
2022-10-02T14:18:56.670Z,0.50
2022-10-02T14:21:32.021Z,0.60
2022-10-02T14:24:04.741Z,0.50
2022-10-02T14:26:38.413Z,0.63
2022-10-02T14:29:40.437Z,0.75
2022-10-02T14:32:28.588Z,0.40
2022-10-02T14:35:32.974Z,0.38
2022-10-02T14:38:30.915Z,0.30
2022-10-02T14:41:02.024Z,0.40
2022-10-02T14:43:42.746Z,0.70
2022-10-02T14:49:13.037Z,1.50
2022-10-02T14:52:11.998Z,1.00
2022-10-02T14:54:55.955Z,0.88
2022-10-02T14:57:44.628Z,0.90
2022-10-02T15:00:22.697Z,0.98
2022-10-02T15:03:21.944Z,1.38
2022-10-02T15:06:10.657Z,1.48
2022-10-02T15:08:45.957Z,2.13
2022-10-02T15:11:22.914Z,1.00
2022-10-02T15:13:57.624Z,1.27
2022-10-02T15:17:04.581Z,1.38
2022-10-02T15:19:50.099Z,1.30
2022-10-02T15:22:31.675Z,1.73
2022-10-02T15:25:06.582Z,1.85
2022-10-02T15:27:48.424Z,1.50
2022-10-02T15:30:27.079Z,1.08
2022-10-02T15:33:27.499Z,1.00
2022-10-02T15:36:09.303Z,1.60
2022-10-02T15:38:41.964Z,1.20
2022-10-02T15:41:11.635Z,1.33
2022-10-02T15:43:50.346Z,1.20
2022-10-02T15:46:54.638Z,1.42
2022-10-02T15:49:50.526Z,1.25
2022-10-02T15:52:33.417Z,1.40
2022-10-02T15:55:31.863Z,1.35
2022-10-02T15:58:17.794Z,1.08
2022-10-02T16:01:06.063Z,1.65
2022-10-02T16:03:46.516Z,1.80
2022-10-02T16:06:28.679Z,1.35
2022-10-02T16:09:21.718Z,1.48
2022-10-02T16:12:21.198Z,1.70
2022-10-02T16:15:09.791Z,1.90
2022-10-02T16:17:45.500Z,1.70
2022-10-02T16:20:33.847Z,1.60
2022-10-02T16:23:18.774Z,1.90
2022-10-02T16:26:04.329Z,1.90
2022-10-02T16:28:49.823Z,1.98
2022-10-02T16:31:37.676Z,1.40
2022-10-02T16:34:19.713Z,1.52
2022-10-02T16:36:46.192Z,3.83
2022-10-02T16:39:25.317Z,2.08
2022-10-02T16:42:01.946Z,2.25
2022-10-02T16:44:58.934Z,1.90
2022-10-02T16:47:33.832Z,1.83
2022-10-02T16:50:19.419Z,1.83
2022-10-02T16:52:57.847Z,2.15
2022-10-02T16:55:50.991Z,1.58
2022-10-02T16:58:31.100Z,2.20
2022-10-02T17:01:07.286Z,2.20
2022-10-02T17:03:45.514Z,1.90
2022-10-02T17:06:28.203Z,1.90
2022-10-02T17:09:08.063Z,2.10
2022-10-02T17:11:53.814Z,1.50
2022-10-02T17:14:42.448Z,1.70
2022-10-02T17:17:35.857Z,1.40
2022-10-02T17:20:03.312Z,3.92
2022-10-02T17:22:45.154Z,2.40
2022-10-02T17:25:17.931Z,1.80
2022-10-02T17:27:47.208Z,1.95
2022-10-02T17:30:27.228Z,1.80
2022-10-02T17:33:13.792Z,2.25
2022-10-02T17:35:57.246Z,1.67
2022-10-02T17:39:04.088Z,1.80
2022-10-02T17:41:49.319Z,2.05
2022-10-02T17:44:33.959Z,2.33
2022-10-02T17:47:58.255Z,2.55
2022-10-02T17:50:43.613Z,2.33
2022-10-02T17:53:47.363Z,2.33
2022-10-02T17:56:42.030Z,3.70
2022-10-02T17:59:16.453Z,2.85
2022-10-02T18:02:06.361Z,3.40
2022-10-02T18:05:03.754Z,2.57
2022-10-02T18:07:50.124Z,2.00
2022-10-02T18:10:33.075Z,3.50
2022-10-02T18:13:28.252Z,2.78
2022-10-02T18:16:40.739Z,2.50
2022-10-02T18:19:20.685Z,2.90
2022-10-02T18:21:53.818Z,2.77
2022-10-02T18:24:32.638Z,3.38
2022-10-02T18:26:59.162Z,2.83
2022-10-02T18:29:42.582Z,7.20
2022-10-02T18:32:51.591Z,13.27
2022-10-02T18:35:36.134Z,6.22
2022-10-02T18:38:05.747Z,17.13
2022-10-02T18:40:49.922Z,24.88
2022-10-02T18:43:35.266Z,10.13
2022-10-02T18:46:11.214Z,4.40
2022-10-02T18:48:53.207Z,3.63
2022-10-02T18:51:36.240Z,9.95
2022-10-02T18:54:30.051Z,7.13
2022-10-02T18:57:09.052Z,8.15
2022-10-02T18:59:55.281Z,6.40
2022-10-02T19:02:43.221Z,5.38
2022-10-02T19:05:23.062Z,4.70
2022-10-02T19:07:53.474Z,4.70
2022-10-02T19:10:32.222Z,3.97
2022-10-02T19:13:21.853Z,4.50
2022-10-02T19:15:50.884Z,3.58
2022-10-02T19:18:22.043Z,2.55
2022-10-02T19:21:14.528Z,2.22
2022-10-02T19:23:55.814Z,2.50
2022-10-02T19:26:30.306Z,1.45
2022-10-02T19:29:02.754Z,2.00
2022-10-02T19:31:31.260Z,2.47
2022-10-02T19:34:06.845Z,1.70
2022-10-02T19:36:41.779Z,1.50
2022-10-02T19:39:19.929Z,2.13
2022-10-02T19:41:47.283Z,3.28
2022-10-02T19:44:25.779Z,2.78
2022-10-02T19:46:54.526Z,1.42
2022-10-02T19:49:24.664Z,1.20
2022-10-02T19:51:52.960Z,1.15
2022-10-02T19:54:25.015Z,1.23
2022-10-02T19:57:07.182Z,1.23
2022-10-02T19:59:48.310Z,1.65
2022-10-02T20:02:27.057Z,2.10
2022-10-02T20:04:58.740Z,1.80
2022-10-02T20:07:29.976Z,1.48
2022-10-02T20:10:09.567Z,4.65
2022-10-02T20:12:42.256Z,1.58
2022-10-02T20:15:17.856Z,1.10
2022-10-02T20:17:44.514Z,0.73
2022-10-02T20:20:16.604Z,1.25
2022-10-02T20:22:54.490Z,1.58
2022-10-02T20:25:36.063Z,1.88
2022-10-02T20:28:17.570Z,2.28
2022-10-02T20:30:50.913Z,2.75
2022-10-02T20:33:26.568Z,3.35
2022-10-02T20:35:53.440Z,2.80
2022-10-02T20:38:41.478Z,2.38
2022-10-02T20:41:21.443Z,2.65
2022-10-02T20:43:51.279Z,1.37
2022-10-02T20:46:40.482Z,1.50
2022-10-02T20:49:25.718Z,1.65
2022-10-02T20:52:17.373Z,1.60
2022-10-02T20:55:02.756Z,1.17
2022-10-02T20:58:03.531Z,1.38
2022-10-02T21:01:03.696Z,1.40
2022-10-02T21:04:07.616Z,1.75
2022-10-02T21:07:19.345Z,1.10
2022-10-02T21:09:52.083Z,0.90
2022-10-02T21:12:31.776Z,1.10
2022-10-02T21:15:23.595Z,1.08
2022-10-02T21:18:18.346Z,1.60
2022-10-02T21:21:02.270Z,1.25
2022-10-02T21:23:48.348Z,0.77
2022-10-02T21:26:27.400Z,1.20
2022-10-02T21:29:15.463Z,1.35
2022-10-02T21:31:48.032Z,1.30
2022-10-02T21:34:31.085Z,1.10
2022-10-02T21:37:04.177Z,1.40
2022-10-02T21:39:49.589Z,1.23
2022-10-02T21:42:53.945Z,1.08
2022-10-02T21:45:48.570Z,0.80
2022-10-02T21:48:37.018Z,1.17
2022-10-02T21:51:27.999Z,0.90
2022-10-02T21:54:39.822Z,0.90
2022-10-02T21:57:28.446Z,1.40
2022-10-02T22:00:02.903Z,1.17
2022-10-02T22:03:13.564Z,1.40
2022-10-02T22:06:05.388Z,1.55
2022-10-02T22:08:42.548Z,1.02
2022-10-02T22:11:23.972Z,1.00
2022-10-02T22:13:54.989Z,0.77
2022-10-02T22:16:57.793Z,1.30
2022-10-02T22:19:42.633Z,0.68
2022-10-02T22:22:24.556Z,0.82
2022-10-02T22:24:51.050Z,0.90
2022-10-02T22:27:38.908Z,0.57
2022-10-02T22:30:07.909Z,0.52
2022-10-02T22:33:11.258Z,0.88
2022-10-02T22:36:12.043Z,1.15
2022-10-02T22:38:42.434Z,0.90
2022-10-02T22:41:19.513Z,1.20
2022-10-02T22:44:28.372Z,0.50
2022-10-02T22:47:00.441Z,0.90
2022-10-02T22:49:43.124Z,0.98
2022-10-02T22:52:20.596Z,0.70
2022-10-02T22:55:06.902Z,0.77
2022-10-02T22:57:51.438Z,0.77
2022-10-02T23:00:22.193Z,1.15
2022-10-02T23:05:28.662Z,0.90
2022-10-02T23:08:19.619Z,0.60
2022-10-02T23:10:53.192Z,0.70
2022-10-02T23:13:32.936Z,0.70
2022-10-02T23:16:20.833Z,0.60
2022-10-02T23:18:59.565Z,0.80
2022-10-02T23:22:06.463Z,0.73
2022-10-02T23:25:08.581Z,0.80
2022-10-02T23:27:48.051Z,1.17
2022-10-02T23:30:20.693Z,1.23
2022-10-02T23:32:50.350Z,0.95
2022-10-02T23:35:38.593Z,1.25
2022-10-02T23:38:27.053Z,0.63
2022-10-02T23:41:15.490Z,0.73
2022-10-02T23:44:34.679Z,0.90
2022-10-02T23:47:29.364Z,0.95
2022-10-02T23:49:58.839Z,1.60
2022-10-02T23:53:05.856Z,0.82
2022-10-02T23:56:12.152Z,1.30
2022-10-02T23:58:44.978Z,0.90
